sensor_id;sensor_type;location;lat;lon;timestamp;pressure;altitude;pressure_sealevel;temperature;humidity
76460;BME280;65299;46.084;18.762;2023-04-15T00:01:01;99582.78;;;9.30;75.49
76460;BME280;65299;46.084;18.762;2023-04-15T00:04:02;99575.13;;;9.24;75.64
76460;BME280;65299;46.084;18.762;2023-04-15T00:07:04;99575.88;;;9.29;75.56
76460;BME280;65299;46.084;18.762;2023-04-15T00:10:05;99565.59;;;9.17;75.72
76460;BME280;65299;46.084;18.762;2023-04-15T00:13:05;99564.28;;;9.15;75.98
76460;BME280;65299;46.084;18.762;2023-04-15T00:16:06;99561.41;;;9.06;76.14
76460;BME280;65299;46.084;18.762;2023-04-15T00:19:07;99569.50;;;9.40;75.35
76460;BME280;65299;46.084;18.762;2023-04-15T00:22:08;99575.41;;;9.22;75.88
76460;BME280;65299;46.084;18.762;2023-04-15T00:25:08;99573.25;;;9.24;75.42
76460;BME280;65299;46.084;18.762;2023-04-15T00:28:09;99576.72;;;9.14;75.57
76460;BME280;65299;46.084;18.762;2023-04-15T00:31:09;99563.53;;;9.09;75.06
76460;BME280;65299;46.084;18.762;2023-04-15T00:34:10;99561.41;;;9.06;74.94
76460;BME280;65299;46.084;18.762;2023-04-15T00:37:10;99563.56;;;8.94;75.12
76460;BME280;65299;46.084;18.762;2023-04-15T00:40:12;99557.03;;;8.67;75.47
76460;BME280;65299;46.084;18.762;2023-04-15T00:43:12;99561.25;;;8.73;75.49
76460;BME280;65299;46.084;18.762;2023-04-15T00:46:14;99559.66;;;8.62;75.66
76460;BME280;65299;46.084;18.762;2023-04-15T00:49:16;99564.41;;;8.75;75.65
76460;BME280;65299;46.084;18.762;2023-04-15T00:52:18;99564.72;;;8.43;77.17
76460;BME280;65299;46.084;18.762;2023-04-15T00:55:18;99573.97;;;8.51;77.33
76460;BME280;65299;46.084;18.762;2023-04-15T00:58:19;99580.84;;;8.67;76.51
76460;BME280;65299;46.084;18.762;2023-04-15T01:01:20;99590.06;;;8.74;76.32
76460;BME280;65299;46.084;18.762;2023-04-15T01:04:21;99583.44;;;8.82;76.23
76460;BME280;65299;46.084;18.762;2023-04-15T01:07:22;99593.75;;;8.88;76.45
76460;BME280;65299;46.084;18.762;2023-04-15T01:10:22;99580.25;;;8.85;75.84
76460;BME280;65299;46.084;18.762;2023-04-15T01:13:23;99586.06;;;8.82;75.70
76460;BME280;65299;46.084;18.762;2023-04-15T01:16:24;99581.84;;;8.86;75.46
76460;BME280;65299;46.084;18.762;2023-04-15T01:19:25;99591.34;;;8.92;75.68
76460;BME280;65299;46.084;18.762;2023-04-15T01:22:26;99595.88;;;8.81;75.54
76460;BME280;65299;46.084;18.762;2023-04-15T01:25:31;99598.53;;;8.76;75.42
76460;BME280;65299;46.084;18.762;2023-04-15T01:28:34;99602.72;;;8.92;75.20
76460;BME280;65299;46.084;18.762;2023-04-15T01:31:35;99606.69;;;9.10;74.83
76460;BME280;65299;46.084;18.762;2023-04-15T01:34:36;99597.44;;;8.97;75.33
76460;BME280;65299;46.084;18.762;2023-04-15T01:37:37;99604.84;;;8.95;75.06
76460;BME280;65299;46.084;18.762;2023-04-15T01:40:37;99605.66;;;8.91;75.07
76460;BME280;65299;46.084;18.762;2023-04-15T01:43:37;99602.75;;;8.87;75.64
76460;BME280;65299;46.084;18.762;2023-04-15T01:46:38;99614.09;;;8.98;75.27
76460;BME280;65299;46.084;18.762;2023-04-15T01:49:38;99618.59;;;9.02;74.54
76460;BME280;65299;46.084;18.762;2023-04-15T01:52:39;99613.88;;;8.84;75.44
76460;BME280;65299;46.084;18.762;2023-04-15T01:55:39;99611.78;;;8.81;75.54
76460;BME280;65299;46.084;18.762;2023-04-15T01:58:40;99608.84;;;8.83;75.27
76460;BME280;65299;46.084;18.762;2023-04-15T02:01:40;99615.19;;;8.87;75.63
76460;BME280;65299;46.084;18.762;2023-04-15T02:04:41;99606.19;;;8.88;75.66
76460;BME280;65299;46.084;18.762;2023-04-15T02:07:42;99608.78;;;9.13;74.22
76460;BME280;65299;46.084;18.762;2023-04-15T02:10:42;99612.97;;;9.19;73.80
76460;BME280;65299;46.084;18.762;2023-04-15T02:13:43;99610.03;;;9.31;73.59
76460;BME280;65299;46.084;18.762;2023-04-15T02:16:43;99607.66;;;9.29;73.71
76460;BME280;65299;46.084;18.762;2023-04-15T02:19:43;99611.38;;;9.28;73.92
76460;BME280;65299;46.084;18.762;2023-04-15T02:22:44;99610.88;;;9.11;74.63
76460;BME280;65299;46.084;18.762;2023-04-15T02:25:44;99608.78;;;8.98;75.33
76460;BME280;65299;46.084;18.762;2023-04-15T02:28:46;99618.59;;;9.07;74.77
76460;BME280;65299;46.084;18.762;2023-04-15T02:31:47;99615.13;;;9.07;74.68
76460;BME280;65299;46.084;18.762;2023-04-15T02:34:47;99626.50;;;9.17;74.66
76460;BME280;65299;46.084;18.762;2023-04-15T02:37:48;99626.28;;;9.04;74.87
76460;BME280;65299;46.084;18.762;2023-04-15T02:40:48;99622.56;;;9.10;74.50
76460;BME280;65299;46.084;18.762;2023-04-15T02:43:49;99613.38;;;8.67;75.32
76460;BME280;65299;46.084;18.762;2023-04-15T02:46:50;99611.78;;;8.26;76.29
76460;BME280;65299;46.084;18.762;2023-04-15T02:49:51;99610.75;;;8.42;75.96
76460;BME280;65299;46.084;18.762;2023-04-15T02:52:52;99611.53;;;8.43;75.41
76460;BME280;65299;46.084;18.762;2023-04-15T02:55:52;99606.75;;;8.24;76.36
76460;BME280;65299;46.084;18.762;2023-04-15T02:58:52;99606.72;;;8.14;76.63
76460;BME280;65299;46.084;18.762;2023-04-15T03:01:55;99610.47;;;8.54;75.57
76460;BME280;65299;46.084;18.762;2023-04-15T03:04:59;99610.47;;;8.59;75.08
76460;BME280;65299;46.084;18.762;2023-04-15T03:08:00;99612.81;;;8.70;75.09
76460;BME280;65299;46.084;18.762;2023-04-15T03:11:02;99613.59;;;8.91;73.88
76460;BME280;65299;46.084;18.762;2023-04-15T03:14:03;99617.84;;;8.87;73.71
76460;BME280;65299;46.084;18.762;2023-04-15T03:17:04;99609.38;;;8.70;74.63
76460;BME280;65299;46.084;18.762;2023-04-15T03:20:05;99614.91;;;8.88;74.23
76460;BME280;65299;46.084;18.762;2023-04-15T03:23:05;99611.47;;;8.88;74.44
76460;BME280;65299;46.084;18.762;2023-04-15T03:26:06;99611.69;;;9.06;73.84
76460;BME280;65299;46.084;18.762;2023-04-15T03:29:06;99610.13;;;9.00;74.06
76460;BME280;65299;46.084;18.762;2023-04-15T03:32:07;99610.41;;;8.89;74.27
76460;BME280;65299;46.084;18.762;2023-04-15T03:35:07;99608.31;;;8.76;74.98
76460;BME280;65299;46.084;18.762;2023-04-15T03:38:08;99608.34;;;8.71;75.18
76460;BME280;65299;46.084;18.762;2023-04-15T03:41:09;99616.81;;;8.58;75.48
76460;BME280;65299;46.084;18.762;2023-04-15T03:44:09;99616.00;;;8.72;74.71
76460;BME280;65299;46.084;18.762;2023-04-15T03:47:10;99614.66;;;8.85;74.16
76460;BME280;65299;46.084;18.762;2023-04-15T03:50:10;99610.41;;;8.94;73.87
76460;BME280;65299;46.084;18.762;2023-04-15T03:53:11;99603.56;;;8.83;74.08
76460;BME280;65299;46.084;18.762;2023-04-15T03:56:12;99604.91;;;8.65;74.96
76460;BME280;65299;46.084;18.762;2023-04-15T03:59:12;99607.81;;;8.59;74.81
76460;BME280;65299;46.084;18.762;2023-04-15T04:02:12;99604.91;;;8.35;75.56
76460;BME280;65299;46.084;18.762;2023-04-15T04:05:13;99614.94;;;8.53;75.17
76460;BME280;65299;46.084;18.762;2023-04-15T04:08:13;99605.16;;;8.54;75.18
76460;BME280;65299;46.084;18.762;2023-04-15T04:11:15;99613.38;;;8.37;75.23
76460;BME280;65299;46.084;18.762;2023-04-15T04:14:16;99609.94;;;8.42;74.93
76460;BME280;65299;46.084;18.762;2023-04-15T04:17:16;99607.28;;;8.42;74.83
76460;BME280;65299;46.084;18.762;2023-04-15T04:20:17;99607.25;;;8.21;75.60
76460;BME280;65299;46.084;18.762;2023-04-15T04:23:17;99613.66;;;8.30;75.66
76460;BME280;65299;46.084;18.762;2023-04-15T04:26:17;99614.16;;;8.38;75.45
76460;BME280;65299;46.084;18.762;2023-04-15T04:29:18;99622.09;;;8.27;75.46
76460;BME280;65299;46.084;18.762;2023-04-15T04:32:19;99629.50;;;8.56;74.33
76460;BME280;65299;46.084;18.762;2023-04-15T04:35:19;99628.44;;;8.72;73.92
76460;BME280;65299;46.084;18.762;2023-04-15T04:38:21;99626.03;;;8.10;75.93
76460;BME280;65299;46.084;18.762;2023-04-15T04:41:21;99620.53;;;8.47;76.04
76460;BME280;65299;46.084;18.762;2023-04-15T04:44:21;99624.94;;;8.96;74.69
76460;BME280;65299;46.084;18.762;2023-04-15T04:47:22;99626.50;;;9.17;73.45
76460;BME280;65299;46.084;18.762;2023-04-15T04:50:22;99625.34;;;9.39;73.25
76460;BME280;65299;46.084;18.762;2023-04-15T04:53:22;99632.44;;;9.58;73.01
76460;BME280;65299;46.084;18.762;2023-04-15T04:56:23;99629.91;;;9.82;72.41
76460;BME280;65299;46.084;18.762;2023-04-15T04:59:23;99628.19;;;9.57;72.91
76460;BME280;65299;46.084;18.762;2023-04-15T05:02:24;99635.50;;;9.75;72.86
76460;BME280;65299;46.084;18.762;2023-04-15T05:05:26;99636.09;;;10.16;71.79
76460;BME280;65299;46.084;18.762;2023-04-15T05:08:26;99647.28;;;10.13;71.96
76460;BME280;65299;46.084;18.762;2023-04-15T05:11:26;99644.16;;;9.96;72.73
76460;BME280;65299;46.084;18.762;2023-04-15T05:14:27;99646.50;;;10.08;72.21
76460;BME280;65299;46.084;18.762;2023-04-15T05:17:27;99648.34;;;9.58;73.68
76460;BME280;65299;46.084;18.762;2023-04-15T05:20:30;99647.53;;;9.58;74.23
76460;BME280;65299;46.084;18.762;2023-04-15T05:23:31;99649.94;;;9.54;74.26
76460;BME280;65299;46.084;18.762;2023-04-15T05:26:31;99648.97;;;9.30;74.58
76460;BME280;65299;46.084;18.762;2023-04-15T05:29:32;99654.13;;;9.65;73.94
76460;BME280;65299;46.084;18.762;2023-04-15T05:32:32;99646.22;;;9.55;73.70
76460;BME280;65299;46.084;18.762;2023-04-15T05:35:32;99646.53;;;9.44;74.45
76460;BME280;65299;46.084;18.762;2023-04-15T05:38:33;99646.97;;;9.66;73.88
76460;BME280;65299;46.084;18.762;2023-04-15T05:41:33;99654.06;;;9.80;73.53
76460;BME280;65299;46.084;18.762;2023-04-15T05:44:34;99660.63;;;9.93;72.95
76460;BME280;65299;46.084;18.762;2023-04-15T05:47:35;99656.00;;;9.65;74.27
76460;BME280;65299;46.084;18.762;2023-04-15T05:50:36;99661.53;;;9.68;74.20
76460;BME280;65299;46.084;18.762;2023-04-15T05:53:36;99668.91;;;9.76;74.22
76460;BME280;65299;46.084;18.762;2023-04-15T05:56:37;99667.50;;;9.94;73.38
76460;BME280;65299;46.084;18.762;2023-04-15T05:59:37;99673.00;;;10.08;72.57
76460;BME280;65299;46.084;18.762;2023-04-15T06:02:38;99672.97;;;10.18;72.46
76460;BME280;65299;46.084;18.762;2023-04-15T06:05:38;99667.09;;;10.21;72.44
76460;BME280;65299;46.084;18.762;2023-04-15T06:08:40;99670.19;;;10.33;71.67
76460;BME280;65299;46.084;18.762;2023-04-15T06:11:40;99673.63;;;10.72;71.47
76460;BME280;65299;46.084;18.762;2023-04-15T06:14:40;99679.56;;;10.59;71.64
76460;BME280;65299;46.084;18.762;2023-04-15T06:17:41;99683.22;;;10.68;72.03
76460;BME280;65299;46.084;18.762;2023-04-15T06:20:41;99677.94;;;10.92;71.51
76460;BME280;65299;46.084;18.762;2023-04-15T06:23:42;99698.22;;;11.11;70.27
76460;BME280;65299;46.084;18.762;2023-04-15T06:26:42;99689.56;;;11.01;70.92
76460;BME280;65299;46.084;18.762;2023-04-15T06:29:43;99701.41;;;10.46;72.03
76460;BME280;65299;46.084;18.762;2023-04-15T06:32:43;99691.56;;;10.85;71.26
76460;BME280;65299;46.084;18.762;2023-04-15T06:35:44;99705.06;;;11.17;70.63
76460;BME280;65299;46.084;18.762;2023-04-15T06:38:44;99699.75;;;11.17;69.51
76460;BME280;65299;46.084;18.762;2023-04-15T06:41:45;99701.25;;;11.00;71.14
76460;BME280;65299;46.084;18.762;2023-04-15T06:44:45;99696.72;;;11.29;69.85
76460;BME280;65299;46.084;18.762;2023-04-15T06:47:46;99698.75;;;11.37;69.30
76460;BME280;65299;46.084;18.762;2023-04-15T06:50:47;99712.06;;;11.08;70.93
76460;BME280;65299;46.084;18.762;2023-04-15T06:53:48;99696.78;;;11.47;70.10
76460;BME280;65299;46.084;18.762;2023-04-15T06:56:48;99686.00;;;11.62;69.85
76460;BME280;65299;46.084;18.762;2023-04-15T06:59:49;99690.72;;;11.65;69.44
76460;BME280;65299;46.084;18.762;2023-04-15T07:02:50;99695.91;;;12.18;68.67
76460;BME280;65299;46.084;18.762;2023-04-15T07:05:51;99693.63;;;12.30;68.30
76460;BME280;65299;46.084;18.762;2023-04-15T07:08:52;99694.41;;;12.12;68.30
76460;BME280;65299;46.084;18.762;2023-04-15T07:11:53;99702.09;;;12.32;67.83
76460;BME280;65299;46.084;18.762;2023-04-15T07:14:53;99697.38;;;12.29;68.48
76460;BME280;65299;46.084;18.762;2023-04-15T07:17:54;99707.44;;;11.95;68.44
76460;BME280;65299;46.084;18.762;2023-04-15T07:20:55;99705.28;;;11.97;69.19
76460;BME280;65299;46.084;18.762;2023-04-15T07:23:55;99702.50;;;12.25;67.91
76460;BME280;65299;46.084;18.762;2023-04-15T07:26:56;99703.41;;;12.53;67.17
76460;BME280;65299;46.084;18.762;2023-04-15T07:29:58;99706.59;;;12.69;66.81
76460;BME280;65299;46.084;18.762;2023-04-15T07:32:58;99711.00;;;12.78;66.78
76460;BME280;65299;46.084;18.762;2023-04-15T07:35:58;99713.03;;;12.49;67.91
76460;BME280;65299;46.084;18.762;2023-04-15T07:38:59;99716.00;;;12.29;68.70
76460;BME280;65299;46.084;18.762;2023-04-15T07:42:01;99720.50;;;12.10;69.53
76460;BME280;65299;46.084;18.762;2023-04-15T07:45:03;99730.47;;;12.41;68.68
76460;BME280;65299;46.084;18.762;2023-04-15T07:48:03;99730.97;;;12.62;67.61
76460;BME280;65299;46.084;18.762;2023-04-15T07:51:05;99733.03;;;12.65;66.17
76460;BME280;65299;46.084;18.762;2023-04-15T07:54:05;99738.03;;;12.85;66.26
76460;BME280;65299;46.084;18.762;2023-04-15T07:57:06;99744.47;;;12.66;67.30
76460;BME280;65299;46.084;18.762;2023-04-15T08:00:07;99734.50;;;12.90;65.66
76460;BME280;65299;46.084;18.762;2023-04-15T08:03:07;99745.28;;;13.30;64.66
76460;BME280;65299;46.084;18.762;2023-04-15T08:06:08;99747.41;;;13.61;64.19
76460;BME280;65299;46.084;18.762;2023-04-15T08:09:08;99742.06;;;13.34;64.14
76460;BME280;65299;46.084;18.762;2023-04-15T08:12:09;99749.38;;;13.42;61.90
76460;BME280;65299;46.084;18.762;2023-04-15T08:15:12;99756.56;;;13.41;63.06
76460;BME280;65299;46.084;18.762;2023-04-15T08:18:13;99757.69;;;13.21;64.11
76460;BME280;65299;46.084;18.762;2023-04-15T08:21:13;99765.47;;;13.04;63.19
76460;BME280;65299;46.084;18.762;2023-04-15T08:24:14;99769.25;;;13.17;63.01
76460;BME280;65299;46.084;18.762;2023-04-15T08:27:14;99764.81;;;13.26;63.14
76460;BME280;65299;46.084;18.762;2023-04-15T08:30:15;99769.72;;;13.38;62.40
76460;BME280;65299;46.084;18.762;2023-04-15T08:33:15;99768.06;;;13.69;61.85
76460;BME280;65299;46.084;18.762;2023-04-15T08:36:16;99768.03;;;13.55;60.47
76460;BME280;65299;46.084;18.762;2023-04-15T08:39:16;99776.06;;;14.37;59.81
76460;BME280;65299;46.084;18.762;2023-04-15T08:42:22;99770.63;;;14.28;59.24
76460;BME280;65299;46.084;18.762;2023-04-15T08:45:27;99771.22;;;13.57;60.92
76460;BME280;65299;46.084;18.762;2023-04-15T08:48:28;99771.16;;;13.30;61.84
76460;BME280;65299;46.084;18.762;2023-04-15T08:51:29;99766.53;;;13.36;60.24
76460;BME280;65299;46.084;18.762;2023-04-15T08:54:29;99781.16;;;13.06;61.76
76460;BME280;65299;46.084;18.762;2023-04-15T08:57:30;99782.59;;;12.98;62.52
76460;BME280;65299;46.084;18.762;2023-04-15T09:00:31;99786.06;;;12.62;64.19
76460;BME280;65299;46.084;18.762;2023-04-15T09:03:33;99790.06;;;12.96;63.17
76460;BME280;65299;46.084;18.762;2023-04-15T09:06:34;99794.66;;;13.09;63.45
76460;BME280;65299;46.084;18.762;2023-04-15T09:09:34;99795.88;;;13.36;62.42
76460;BME280;65299;46.084;18.762;2023-04-15T09:12:36;99795.59;;;13.18;62.87
76460;BME280;65299;46.084;18.762;2023-04-15T09:15:37;99796.06;;;13.39;62.92
76460;BME280;65299;46.084;18.762;2023-04-15T09:18:38;99794.06;;;13.31;62.95
76460;BME280;65299;46.084;18.762;2023-04-15T09:21:38;99795.63;;;13.78;60.95
76460;BME280;65299;46.084;18.762;2023-04-15T09:24:39;99804.09;;;13.20;62.85
76460;BME280;65299;46.084;18.762;2023-04-15T09:27:51;99807.34;;;13.63;60.72
76460;BME280;65299;46.084;18.762;2023-04-15T09:30:55;99808.84;;;13.83;61.52
76460;BME280;65299;46.084;18.762;2023-04-15T09:33:56;99817.38;;;14.12;60.01
76460;BME280;65299;46.084;18.762;2023-04-15T09:36:57;99813.56;;;13.59;59.71
76460;BME280;65299;46.084;18.762;2023-04-15T09:39:57;99818.09;;;13.58;62.05
76460;BME280;65299;46.084;18.762;2023-04-15T09:42:58;99817.66;;;14.10;59.82
76460;BME280;65299;46.084;18.762;2023-04-15T09:45:59;99812.75;;;14.31;59.98
76460;BME280;65299;46.084;18.762;2023-04-15T09:49:17;99818.88;;;14.45;59.05
76460;BME280;65299;46.084;18.762;2023-04-15T09:52:17;99824.25;;;14.67;59.49
76460;BME280;65299;46.084;18.762;2023-04-15T09:55:18;99813.19;;;13.79;59.52
76460;BME280;65299;46.084;18.762;2023-04-15T09:58:20;99809.94;;;14.09;59.96
76460;BME280;65299;46.084;18.762;2023-04-15T10:01:20;99816.56;;;13.98;58.39
76460;BME280;65299;46.084;18.762;2023-04-15T10:04:21;99826.25;;;13.80;58.71
76460;BME280;65299;46.084;18.762;2023-04-15T10:07:22;99822.09;;;14.01;59.32
76460;BME280;65299;46.084;18.762;2023-04-15T10:10:23;99826.16;;;14.26;59.23
76460;BME280;65299;46.084;18.762;2023-04-15T10:13:29;99819.84;;;14.22;58.71
76460;BME280;65299;46.084;18.762;2023-04-15T10:16:33;99816.03;;;15.00;57.08
76460;BME280;65299;46.084;18.762;2023-04-15T10:19:36;99814.81;;;14.83;54.89
76460;BME280;65299;46.084;18.762;2023-04-15T10:22:37;99816.75;;;15.36;55.94
76460;BME280;65299;46.084;18.762;2023-04-15T10:25:40;99813.41;;;15.30;53.61
76460;BME280;65299;46.084;18.762;2023-04-15T10:28:41;99810.22;;;15.72;53.40
76460;BME280;65299;46.084;18.762;2023-04-15T10:31:42;99800.41;;;15.15;54.29
76460;BME280;65299;46.084;18.762;2023-04-15T10:34:44;99809.22;;;15.60;55.52
76460;BME280;65299;46.084;18.762;2023-04-15T10:37:45;99802.19;;;15.72;52.71
76460;BME280;65299;46.084;18.762;2023-04-15T10:40:46;99792.75;;;16.14;51.52
76460;BME280;65299;46.084;18.762;2023-04-15T10:44:00;99809.84;;;15.57;51.69
76460;BME280;65299;46.084;18.762;2023-04-15T10:47:05;99789.94;;;15.71;50.84
76460;BME280;65299;46.084;18.762;2023-04-15T10:50:06;99799.06;;;15.79;52.38
76460;BME280;65299;46.084;18.762;2023-04-15T10:53:09;99799.13;;;15.88;52.06
76460;BME280;65299;46.084;18.762;2023-04-15T10:56:10;99797.16;;;16.19;51.84
76460;BME280;65299;46.084;18.762;2023-04-15T10:59:10;99805.72;;;15.82;53.36
76460;BME280;65299;46.084;18.762;2023-04-15T11:02:12;99807.97;;;15.57;53.63
76460;BME280;65299;46.084;18.762;2023-04-15T11:05:14;99810.09;;;15.25;52.53
76460;BME280;65299;46.084;18.762;2023-04-15T11:08:15;99808.44;;;15.15;53.71
76460;BME280;65299;46.084;18.762;2023-04-15T11:11:16;99813.59;;;15.34;52.96
76460;BME280;65299;46.084;18.762;2023-04-15T11:14:16;99812.94;;;15.28;52.26
76460;BME280;65299;46.084;18.762;2023-04-15T11:17:26;99811.19;;;15.76;51.63
76460;BME280;65299;46.084;18.762;2023-04-15T11:20:28;99799.91;;;15.97;49.80
76460;BME280;65299;46.084;18.762;2023-04-15T11:23:55;99812.25;;;15.67;52.65
76460;BME280;65299;46.084;18.762;2023-04-15T11:27:00;99815.84;;;15.40;51.81
76460;BME280;65299;46.084;18.762;2023-04-15T11:30:01;99814.72;;;15.11;51.21
76460;BME280;65299;46.084;18.762;2023-04-15T11:33:07;99815.94;;;15.35;50.28
76460;BME280;65299;46.084;18.762;2023-04-15T11:36:09;99813.59;;;15.56;49.98
76460;BME280;65299;46.084;18.762;2023-04-15T11:39:09;99810.91;;;15.56;50.91
76460;BME280;65299;46.084;18.762;2023-04-15T11:42:17;99810.31;;;15.37;50.92
76460;BME280;65299;46.084;18.762;2023-04-15T11:45:17;99810.59;;;15.49;52.20
76460;BME280;65299;46.084;18.762;2023-04-15T11:48:18;99805.75;;;15.90;49.99
76460;BME280;65299;46.084;18.762;2023-04-15T11:51:20;99810.19;;;15.20;51.16
76460;BME280;65299;46.084;18.762;2023-04-15T11:54:21;99811.00;;;15.42;51.67
76460;BME280;65299;46.084;18.762;2023-04-15T11:57:30;99811.75;;;15.65;50.65
76460;BME280;65299;46.084;18.762;2023-04-15T12:00:31;99799.16;;;15.96;50.52
76460;BME280;65299;46.084;18.762;2023-04-15T12:03:43;99801.94;;;16.30;49.15
76460;BME280;65299;46.084;18.762;2023-04-15T12:06:44;99801.16;;;16.47;49.71
76460;BME280;65299;46.084;18.762;2023-04-15T12:09:54;99807.75;;;15.54;49.55
76460;BME280;65299;46.084;18.762;2023-04-15T12:12:55;99803.63;;;15.04;51.11
76460;BME280;65299;46.084;18.762;2023-04-15T12:15:56;99813.06;;;15.76;51.04
76460;BME280;65299;46.084;18.762;2023-04-15T12:18:58;99810.25;;;15.28;51.54
76460;BME280;65299;46.084;18.762;2023-04-15T12:22:00;99812.47;;;15.48;50.44
76460;BME280;65299;46.084;18.762;2023-04-15T12:25:01;99815.03;;;15.62;50.45
76460;BME280;65299;46.084;18.762;2023-04-15T12:28:09;99813.56;;;15.47;50.12
76460;BME280;65299;46.084;18.762;2023-04-15T12:31:10;99815.22;;;15.65;50.47
76460;BME280;65299;46.084;18.762;2023-04-15T12:34:13;99811.00;;;15.73;48.94
76460;BME280;65299;46.084;18.762;2023-04-15T12:37:13;99811.00;;;15.73;49.95
76460;BME280;65299;46.084;18.762;2023-04-15T12:40:15;99802.34;;;16.15;48.74
76460;BME280;65299;46.084;18.762;2023-04-15T12:43:15;99807.84;;;15.71;47.74
76460;BME280;65299;46.084;18.762;2023-04-15T12:46:16;99804.41;;;16.18;49.56
76460;BME280;65299;46.084;18.762;2023-04-15T12:49:17;99811.72;;;15.34;50.11
76460;BME280;65299;46.084;18.762;2023-04-15T12:52:19;99814.16;;;15.75;49.20
76460;BME280;65299;46.084;18.762;2023-04-15T12:55:20;99817.38;;;15.86;49.50
76460;BME280;65299;46.084;18.762;2023-04-15T12:58:20;99812.97;;;15.90;47.89
76460;BME280;65299;46.084;18.762;2023-04-15T13:01:21;99825.94;;;15.74;48.33
76460;BME280;65299;46.084;18.762;2023-04-15T13:04:21;99824.78;;;15.58;48.43
76460;BME280;65299;46.084;18.762;2023-04-15T13:07:22;99827.66;;;15.61;49.83
76460;BME280;65299;46.084;18.762;2023-04-15T13:10:22;99818.59;;;15.80;49.43
76460;BME280;65299;46.084;18.762;2023-04-15T13:13:23;99812.13;;;16.20;47.75
76460;BME280;65299;46.084;18.762;2023-04-15T13:16:23;99812.88;;;16.51;46.79
76460;BME280;65299;46.084;18.762;2023-04-15T13:19:24;99811.00;;;16.21;48.07
76460;BME280;65299;46.084;18.762;2023-04-15T13:22:24;99810.72;;;16.22;47.73
76460;BME280;65299;46.084;18.762;2023-04-15T13:25:25;99807.19;;;16.70;47.61
76460;BME280;65299;46.084;18.762;2023-04-15T13:28:26;99804.97;;;16.72;47.46
76460;BME280;65299;46.084;18.762;2023-04-15T13:31:26;99806.06;;;17.30;47.37
76460;BME280;65299;46.084;18.762;2023-04-15T13:34:26;99809.25;;;16.98;46.18
76460;BME280;65299;46.084;18.762;2023-04-15T13:37:28;99812.75;;;16.25;46.67
76460;BME280;65299;46.084;18.762;2023-04-15T13:40:28;99812.25;;;16.97;45.52
76460;BME280;65299;46.084;18.762;2023-04-15T13:43:29;99815.06;;;17.34;45.77
76460;BME280;65299;46.084;18.762;2023-04-15T13:46:29;99813.22;;;16.84;45.95
76460;BME280;65299;46.084;18.762;2023-04-15T13:49:30;99815.06;;;17.26;45.42
76460;BME280;65299;46.084;18.762;2023-04-15T13:52:30;99812.06;;;17.10;46.06
76460;BME280;65299;46.084;18.762;2023-04-15T13:55:30;99807.50;;;17.28;45.54
76460;BME280;65299;46.084;18.762;2023-04-15T13:58:31;99813.16;;;17.52;45.23
76460;BME280;65299;46.084;18.762;2023-04-15T14:01:32;99812.25;;;17.22;46.03
76460;BME280;65299;46.084;18.762;2023-04-15T14:04:32;99815.88;;;16.92;45.38
76460;BME280;65299;46.084;18.762;2023-04-15T14:07:32;99817.94;;;17.04;44.88
76460;BME280;65299;46.084;18.762;2023-04-15T14:10:34;99818.22;;;17.11;45.19
76460;BME280;65299;46.084;18.762;2023-04-15T14:13:35;99822.34;;;16.83;46.11
76460;BME280;65299;46.084;18.762;2023-04-15T14:16:35;99827.34;;;17.61;43.36
76460;BME280;65299;46.084;18.762;2023-04-15T14:19:35;99818.47;;;17.69;43.97
76460;BME280;65299;46.084;18.762;2023-04-15T14:22:36;99831.31;;;17.21;44.00
76460;BME280;65299;46.084;18.762;2023-04-15T14:25:36;99821.88;;;16.81;44.83
76460;BME280;65299;46.084;18.762;2023-04-15T14:28:38;99820.25;;;16.54;45.92
76460;BME280;65299;46.084;18.762;2023-04-15T14:31:38;99826.72;;;16.62;45.21
76460;BME280;65299;46.084;18.762;2023-04-15T14:34:39;99822.03;;;16.93;44.81
76460;BME280;65299;46.084;18.762;2023-04-15T14:37:39;99825.03;;;17.00;44.61
76460;BME280;65299;46.084;18.762;2023-04-15T14:40:40;99829.28;;;17.01;45.16
76460;BME280;65299;46.084;18.762;2023-04-15T14:43:40;99822.19;;;17.05;45.16
76460;BME280;65299;46.084;18.762;2023-04-15T14:46:41;99829.56;;;17.51;43.25
76460;BME280;65299;46.084;18.762;2023-04-15T14:49:41;99835.38;;;17.44;43.06
76460;BME280;65299;46.084;18.762;2023-04-15T14:52:42;99836.34;;;17.48;44.70
76460;BME280;65299;46.084;18.762;2023-04-15T14:55:42;99838.81;;;17.70;46.06
76460;BME280;65299;46.084;18.762;2023-04-15T14:58:43;99840.00;;;17.26;43.20
76460;BME280;65299;46.084;18.762;2023-04-15T15:01:43;99837.41;;;17.47;42.47
76460;BME280;65299;46.084;18.762;2023-04-15T15:04:44;99838.25;;;17.56;43.49
76460;BME280;65299;46.084;18.762;2023-04-15T15:07:44;99841.16;;;17.80;43.24
76460;BME280;65299;46.084;18.762;2023-04-15T15:10:45;99834.72;;;18.48;41.38
76460;BME280;65299;46.084;18.762;2023-04-15T15:13:45;99838.72;;;18.34;42.09
76460;BME280;65299;46.084;18.762;2023-04-15T15:16:46;99836.75;;;18.43;41.23
76460;BME280;65299;46.084;18.762;2023-04-15T15:19:46;99853.22;;;18.70;42.18
76460;BME280;65299;46.084;18.762;2023-04-15T15:22:47;99849.25;;;18.47;41.60
76460;BME280;65299;46.084;18.762;2023-04-15T15:25:47;99846.13;;;18.66;40.25
76460;BME280;65299;46.084;18.762;2023-04-15T15:28:48;99847.19;;;18.53;39.66
76460;BME280;65299;46.084;18.762;2023-04-15T15:31:49;99845.81;;;18.47;40.79
76460;BME280;65299;46.084;18.762;2023-04-15T15:34:50;99853.97;;;18.12;41.58
76460;BME280;65299;46.084;18.762;2023-04-15T15:37:51;99849.75;;;17.57;43.13
76460;BME280;65299;46.084;18.762;2023-04-15T15:40:51;99845.97;;;17.49;43.08
76460;BME280;65299;46.084;18.762;2023-04-15T15:43:52;99844.56;;;17.26;42.48
76460;BME280;65299;46.084;18.762;2023-04-15T15:46:53;99834.31;;;17.11;42.73
76460;BME280;65299;46.084;18.762;2023-04-15T15:49:53;99843.94;;;17.03;42.51